DNAA/ABV METAR and TAF weather

Enter ICAO airport designator
Station Type Date Time Source
DNAA METAR 2020/01/21 04:00 UTC NOAA

DNAA 210400Z 06002KT 1400 HZ NSC 21/14 Q1013 NOSIG


Station Type Date Time Source
DNAA Decoded METAR 2020/01/21 04:00 UTC NOAA

Station name not available
Jan 20, 2020 - 11:00 PM EST / 2020.01.21 0400 UTC
Wind: from the ENE (060 degrees) at 2 MPH (2 KT):0
Visibility: less than 1 mile:0
Weather: haze
Temperature: 69 F (21 C)
Dew Point: 57 F (14 C)
Relative Humidity: 64%
Pressure (altimeter): 29.91 in. Hg (1013 hPa)
ob: DNAA 210400Z 06002KT 1400 HZ NSC 21/14 Q1013 NOSIG
cycle: 4

Station Type Date Time Source
DNAA TAF 2020/01/21 18:15 UTC NOAA

TAF DNAA 211700Z 2118/2224 12004KT 3000 HZ NSC
BECMG 2119/2121 06010KT PROB30
TEMPO 2205/2210 1500
BECMG 2210/2212 25006KT

Example: see airport list